createdAt,value
2023-05-02T00:01:47.354Z,102146.91
2023-05-02T00:04:13.990Z,102143.34
2023-05-02T00:06:42.297Z,102138.91
2023-05-02T00:09:09.103Z,102141.47
2023-05-02T00:11:35.596Z,102141.47
2023-05-02T00:14:01.918Z,102140.63
2023-05-02T00:16:28.261Z,102139.69
2023-05-02T00:18:54.670Z,102137.66
2023-05-02T00:21:21.050Z,102144.00
2023-05-02T00:23:47.493Z,102138.72
2023-05-02T00:26:13.893Z,102141.25
2023-05-02T00:28:40.348Z,102149.72
2023-05-02T00:31:06.838Z,102144.44
2023-05-02T00:33:33.267Z,102143.28
2023-05-02T00:35:59.643Z,102151.22
2023-05-02T00:38:25.956Z,102145.94
2023-05-02T00:40:53.377Z,102151.94
2023-05-02T00:43:20.289Z,102149.19
2023-05-02T00:45:47.185Z,102147.38
2023-05-02T00:48:13.976Z,102146.56
2023-05-02T00:50:42.009Z,102157.00
2023-05-02T00:53:10.551Z,102157.94
2023-05-02T00:55:37.119Z,102161.53
2023-05-02T00:58:07.111Z,102165.13
2023-05-02T01:01:02.468Z,102157.22
2023-05-02T01:03:45.567Z,102176.44
2023-05-02T01:06:39.608Z,102177.38
2023-05-02T01:09:37.657Z,102183.63
2023-05-02T01:12:28.920Z,102180.25
2023-05-02T01:14:57.581Z,102173.25
2023-05-02T01:17:28.550Z,102171.56
2023-05-02T01:19:58.911Z,102174.19
2023-05-02T01:22:30.030Z,102183.91
2023-05-02T01:25:18.381Z,102181.78
2023-05-02T01:28:10.095Z,102194.41
2023-05-02T01:30:41.102Z,102187.84
2023-05-02T01:33:11.036Z,102192.59
2023-05-02T01:35:38.802Z,102198.81
2023-05-02T01:38:07.073Z,102191.84
2023-05-02T01:40:36.545Z,102200.72
2023-05-02T01:43:05.871Z,102201.66
2023-05-02T01:45:34.604Z,102214.84
2023-05-02T01:48:01.748Z,102209.59
2023-05-02T01:50:28.940Z,102206.19
2023-05-02T01:52:56.202Z,102208.19
2023-05-02T01:55:24.317Z,102228.63
2023-05-02T01:57:53.056Z,102228.84
2023-05-02T02:00:20.686Z,102231.59
2023-05-02T02:02:48.766Z,102227.44
2023-05-02T02:05:18.040Z,102241.69
2023-05-02T02:07:44.694Z,102233.97
2023-05-02T02:10:11.490Z,102229.53
2023-05-02T02:12:52.568Z,102234.91
2023-05-02T02:15:25.856Z,102230.59
2023-05-02T02:18:00.369Z,102236.03
2023-05-02T02:20:29.506Z,102237.09
2023-05-02T02:22:57.787Z,102247.75
2023-05-02T02:25:26.910Z,102256.38
2023-05-02T02:27:53.680Z,102263.47
2023-05-02T02:30:20.094Z,102267.88
2023-05-02T02:32:46.657Z,102266.19
2023-05-02T02:35:13.238Z,102269.78
2023-05-02T02:37:48.603Z,102264.13
2023-05-02T02:40:30.306Z,102271.28
2023-05-02T02:43:17.269Z,102281.94
2023-05-02T02:45:55.083Z,102283.00
2023-05-02T02:48:21.544Z,102281.28
2023-05-02T02:51:25.532Z,102284.00
2023-05-02T02:53:51.893Z,102281.47
2023-05-02T02:56:29.932Z,102284.41
2023-05-02T02:59:05.222Z,102291.09
2023-05-02T03:01:33.299Z,102294.09
2023-05-02T03:04:04.320Z,102295.03
2023-05-02T03:06:31.659Z,102291.66
2023-05-02T03:08:58.452Z,102302.84
2023-05-02T03:11:25.602Z,102306.22
2023-05-02T03:13:52.885Z,102308.69
2023-05-02T03:16:28.212Z,102311.31
2023-05-02T03:18:54.603Z,102313.88
2023-05-02T03:21:21.188Z,102317.44
2023-05-02T03:23:47.582Z,102318.28
2023-05-02T03:26:14.052Z,102317.44
2023-05-02T03:28:40.411Z,102322.72
2023-05-02T03:31:06.715Z,102330.03
2023-05-02T03:33:33.150Z,102328.56
2023-05-02T03:35:59.560Z,102333.84
2023-05-02T03:38:25.991Z,102333.25
2023-05-02T03:40:52.479Z,102337.75
2023-05-02T03:43:18.805Z,102350.00
2023-05-02T03:45:46.115Z,102335.22
2023-05-02T03:48:13.961Z,102354.50
2023-05-02T03:50:40.283Z,102360.44
2023-05-02T03:53:08.173Z,102353.56
2023-05-02T03:55:39.413Z,102350.19
2023-05-02T03:58:05.727Z,102357.50
2023-05-02T04:00:32.070Z,102356.00
2023-05-02T04:03:01.169Z,102361.63
2023-05-02T04:05:27.557Z,102362.00
2023-05-02T04:07:53.935Z,102368.00
2023-05-02T04:10:20.614Z,102371.84
2023-05-02T04:12:46.986Z,102368.47
2023-05-02T04:15:13.564Z,102372.88
2023-05-02T04:17:40.086Z,102365.94
2023-05-02T04:20:07.376Z,102374.00
2023-05-02T04:22:34.437Z,102377.75
2023-05-02T04:25:00.965Z,102381.34
2023-05-02T04:27:27.299Z,102381.59
2023-05-02T04:29:53.932Z,102395.00
2023-05-02T04:32:20.368Z,102392.97
2023-05-02T04:34:46.756Z,102395.25
2023-05-02T04:37:13.094Z,102400.41
2023-05-02T04:39:39.463Z,102410.84
2023-05-02T04:42:05.915Z,102418.75
2023-05-02T04:44:32.294Z,102420.84
2023-05-02T04:46:58.597Z,102423.97
2023-05-02T04:49:24.969Z,102429.56
2023-05-02T04:51:52.626Z,102436.72
2023-05-02T04:54:19.205Z,102445.56
2023-05-02T04:56:46.629Z,102440.19
2023-05-02T04:59:13.100Z,102442.75
2023-05-02T05:01:39.715Z,102442.75
2023-05-02T05:04:06.261Z,102454.97
2023-05-02T05:06:32.912Z,102454.81
2023-05-02T05:08:59.305Z,102451.25
2023-05-02T05:11:26.312Z,102457.25
2023-05-02T05:13:52.822Z,102468.56
2023-05-02T05:16:19.356Z,102466.88
2023-05-02T05:18:45.712Z,102476.53
2023-05-02T05:21:12.204Z,102477.41
2023-05-02T05:23:38.668Z,102478.16
2023-05-02T05:26:12.013Z,102486.06
2023-05-02T05:28:39.029Z,102495.66
2023-05-02T05:31:10.773Z,102491.16
2023-05-02T05:33:40.700Z,102497.34
2023-05-02T05:36:11.521Z,102488.94
2023-05-02T05:38:38.750Z,102498.31
2023-05-02T05:41:08.328Z,102503.72
2023-05-02T05:43:37.812Z,102512.31
2023-05-02T05:46:04.747Z,102517.31
2023-05-02T05:48:31.288Z,102514.59
2023-05-02T05:50:57.674Z,102522.50
2023-05-02T05:53:24.040Z,102526.84
2023-05-02T05:55:50.413Z,102538.38
2023-05-02T05:58:17.025Z,102543.63
2023-05-02T06:00:43.410Z,102544.66
2023-05-02T06:03:10.221Z,102548.22
2023-05-02T06:05:36.905Z,102554.09
2023-05-02T06:08:03.447Z,102547.72
2023-05-02T06:10:31.332Z,102555.19
2023-05-02T06:12:57.956Z,102553.66
2023-05-02T06:15:24.367Z,102563.88
2023-05-02T06:17:51.880Z,102564.72
2023-05-02T06:20:18.860Z,102574.25
2023-05-02T06:22:45.845Z,102578.47
2023-05-02T06:25:12.233Z,102581.53
2023-05-02T06:27:38.621Z,102583.03
2023-05-02T06:30:06.032Z,102581.44
2023-05-02T06:32:32.533Z,102585.31
2023-05-02T06:34:58.931Z,102590.16
2023-05-02T06:37:25.522Z,102600.69
2023-05-02T06:39:51.961Z,102597.50
2023-05-02T06:42:18.371Z,102594.31
2023-05-02T06:44:44.673Z,102596.22
2023-05-02T06:47:11.233Z,102620.25
2023-05-02T06:49:37.732Z,102617.38
2023-05-02T06:52:04.199Z,102622.16
2023-05-02T06:54:30.646Z,102635.41
2023-05-02T06:56:57.026Z,102631.31
2023-05-02T06:59:23.504Z,102634.56
2023-05-02T07:01:49.822Z,102639.81
2023-05-02T07:04:16.221Z,102650.72
2023-05-02T07:06:42.645Z,102653.78
2023-05-02T07:09:09.032Z,102651.06
2023-05-02T07:11:35.411Z,102661.34
2023-05-02T07:14:01.808Z,102659.13
2023-05-02T07:16:28.379Z,102660.91
2023-05-02T07:18:54.750Z,102660.41
2023-05-02T07:21:21.171Z,102666.88
2023-05-02T07:23:47.575Z,102672.09
2023-05-02T07:26:14.040Z,102676.03
2023-05-02T07:28:40.477Z,102685.75
2023-05-02T07:31:06.867Z,102687.59
2023-05-02T07:33:33.232Z,102695.50
2023-05-02T07:36:01.990Z,102680.81
2023-05-02T07:38:28.345Z,102688.13
2023-05-02T07:40:58.041Z,102687.44
2023-05-02T07:43:24.460Z,102691.69
2023-05-02T07:45:50.951Z,102695.78
2023-05-02T07:48:17.448Z,102693.88
2023-05-02T07:50:43.901Z,102698.66
2023-05-02T07:53:10.979Z,102696.44
2023-05-02T07:55:37.294Z,102701.72
2023-05-02T07:58:04.042Z,102697.53
2023-05-02T08:00:30.669Z,102707.59
2023-05-02T08:02:57.504Z,102705.75
2023-05-02T08:05:23.940Z,102707.44
2023-05-02T08:07:50.500Z,102714.25
2023-05-02T08:10:16.983Z,102710.03
2023-05-02T08:12:43.406Z,102710.22
2023-05-02T08:15:12.465Z,102723.63
2023-05-02T08:17:38.947Z,102725.75
2023-05-02T08:20:06.107Z,102723.50
2023-05-02T08:22:32.459Z,102728.28
2023-05-02T08:24:58.996Z,102731.06
2023-05-02T08:27:25.308Z,102735.00
2023-05-02T08:29:51.635Z,102741.31
2023-05-02T08:32:18.022Z,102726.72
2023-05-02T08:34:44.344Z,102726.06
2023-05-02T08:37:12.017Z,102732.78
2023-05-02T08:39:38.382Z,102742.78
2023-05-02T08:42:08.414Z,102742.63
2023-05-02T08:44:34.801Z,102742.69
2023-05-02T08:47:02.801Z,102742.56
2023-05-02T08:49:31.999Z,102746.72
2023-05-02T08:52:00.223Z,102752.13
2023-05-02T08:54:29.121Z,102756.53
2023-05-02T08:56:56.371Z,102758.94
2023-05-02T08:59:22.873Z,102760.19
2023-05-02T09:01:55.481Z,102763.28
2023-05-02T09:04:24.715Z,102765.66
2023-05-02T09:06:51.209Z,102763.28
2023-05-02T09:09:19.114Z,102772.19
2023-05-02T09:11:47.272Z,102765.84
2023-05-02T09:14:17.295Z,102781.47
2023-05-02T09:16:43.792Z,102778.72
2023-05-02T09:19:10.437Z,102774.59
2023-05-02T09:21:42.219Z,102774.81
2023-05-02T09:24:19.918Z,102776.53
2023-05-02T09:27:03.490Z,102778.63
2023-05-02T09:29:35.613Z,102788.06
2023-05-02T09:32:03.939Z,102790.66
2023-05-02T09:34:31.483Z,102787.72
2023-05-02T09:36:58.321Z,102790.53
2023-05-02T09:39:31.527Z,102795.91
2023-05-02T09:41:58.726Z,102795.78
2023-05-02T09:44:26.954Z,102796.28
2023-05-02T09:46:55.592Z,102795.63
2023-05-02T09:49:40.972Z,102796.16
2023-05-02T09:52:17.495Z,102794.34
2023-05-02T09:54:46.187Z,102791.09
2023-05-02T09:57:12.609Z,102795.22
2023-05-02T09:59:39.770Z,102796.69
2023-05-02T10:02:12.021Z,102799.19
2023-05-02T10:04:39.432Z,102795.22
2023-05-02T10:07:10.230Z,102788.09
2023-05-02T10:09:41.566Z,102794.34
2023-05-02T10:12:08.284Z,102786.38
2023-05-02T10:14:51.593Z,102785.28
2023-05-02T10:17:25.871Z,102798.59
2023-05-02T10:20:04.572Z,102794.56
2023-05-02T10:22:31.556Z,102825.28
2023-05-02T10:24:59.613Z,102830.44
2023-05-02T10:27:26.412Z,102812.41
2023-05-02T10:29:54.443Z,102821.41
2023-05-02T10:32:22.593Z,102820.69
2023-05-02T10:34:51.604Z,102819.31
2023-05-02T10:37:19.177Z,102829.28
2023-05-02T10:39:45.712Z,102823.59
2023-05-02T10:42:13.565Z,102818.56
2023-05-02T10:44:41.338Z,102838.59
2023-05-02T10:47:25.021Z,102821.69
2023-05-02T10:49:56.010Z,102836.13
2023-05-02T10:52:40.978Z,102825.91
2023-05-02T10:55:19.426Z,102822.31
2023-05-02T10:58:01.053Z,102820.75
2023-05-02T11:00:29.687Z,102829.25
2023-05-02T11:02:56.424Z,102833.91
2023-05-02T11:05:26.799Z,102831.81
2023-05-02T11:08:14.958Z,102827.63
2023-05-02T11:10:41.471Z,102827.75
2023-05-02T11:13:07.902Z,102833.94
2023-05-02T11:15:34.218Z,102835.31
2023-05-02T11:18:02.557Z,102848.22
2023-05-02T11:20:30.373Z,102856.50
2023-05-02T11:23:21.862Z,102857.53
2023-05-02T11:25:49.951Z,102844.16
2023-05-02T11:28:38.501Z,102849.69
2023-05-02T11:31:06.561Z,102844.97
2023-05-02T11:33:33.350Z,102842.81
2023-05-02T11:35:59.792Z,102841.06
2023-05-02T11:38:34.941Z,102835.22
2023-05-02T11:41:02.908Z,102840.66
2023-05-02T11:43:31.970Z,102841.50
2023-05-02T11:46:00.139Z,102841.66
2023-05-02T11:48:27.490Z,102842.25
2023-05-02T11:51:06.957Z,102849.00
2023-05-02T11:53:33.781Z,102852.06
2023-05-02T11:56:03.700Z,102860.63
2023-05-02T11:58:32.845Z,102866.34
2023-05-02T12:01:13.304Z,102865.97
2023-05-02T12:03:39.927Z,102861.22
2023-05-02T12:06:15.368Z,102866.03
2023-05-02T12:08:45.557Z,102871.56
2023-05-02T12:11:16.344Z,102872.38
2023-05-02T12:13:47.754Z,102873.22
2023-05-02T12:16:14.645Z,102893.00
2023-05-02T12:18:41.180Z,102890.84
2023-05-02T12:21:08.966Z,102900.91
2023-05-02T12:23:37.277Z,102898.25
2023-05-02T12:26:25.251Z,102899.06
2023-05-02T12:28:54.418Z,102899.03
2023-05-02T12:31:21.233Z,102890.41
2023-05-02T12:33:50.044Z,102894.66
2023-05-02T12:36:17.616Z,102905.97
2023-05-02T12:38:53.059Z,102908.22
2023-05-02T12:41:31.843Z,102912.81
2023-05-02T12:44:00.548Z,102909.53
2023-05-02T12:46:28.353Z,102910.69
2023-05-02T12:49:07.958Z,102925.44
2023-05-02T12:51:34.756Z,102918.44
2023-05-02T12:54:01.438Z,102916.41
2023-05-02T12:56:32.111Z,102922.69
2023-05-02T12:59:05.104Z,102927.41
2023-05-02T13:01:33.776Z,102924.84
2023-05-02T13:04:00.351Z,102922.22
2023-05-02T13:06:27.458Z,102925.66
2023-05-02T13:08:53.893Z,102922.63
2023-05-02T13:11:20.654Z,102919.75
2023-05-02T13:13:47.152Z,102922.09
2023-05-02T13:16:13.608Z,102914.41
2023-05-02T13:18:40.380Z,102916.97
2023-05-02T13:21:06.827Z,102924.97
2023-05-02T13:23:33.238Z,102930.06
2023-05-02T13:25:59.669Z,102922.31
2023-05-02T13:28:26.036Z,102923.94
2023-05-02T13:30:52.518Z,102933.44
2023-05-02T13:33:19.249Z,102921.81
2023-05-02T13:35:46.424Z,102924.19
2023-05-02T13:38:12.864Z,102929.38
2023-05-02T13:40:39.198Z,102934.88
2023-05-02T13:43:05.798Z,102928.44
2023-05-02T13:45:32.161Z,102929.66
2023-05-02T13:47:58.606Z,102920.91
2023-05-02T13:50:25.013Z,102925.97
2023-05-02T13:52:51.341Z,102927.78
2023-05-02T13:55:17.842Z,102936.25
2023-05-02T13:57:44.317Z,102923.91
2023-05-02T14:00:11.409Z,102939.13
2023-05-02T14:02:38.940Z,102940.63
2023-05-02T14:05:05.933Z,102935.19
2023-05-02T14:07:32.516Z,102947.03
2023-05-02T14:09:59.081Z,102951.75
2023-05-02T14:12:25.829Z,102938.38
2023-05-02T14:14:52.507Z,102943.63
2023-05-02T14:17:18.922Z,102936.25
2023-05-02T14:19:45.356Z,102937.53
2023-05-02T14:22:11.678Z,102933.22
2023-05-02T14:24:38.009Z,102927.44
2023-05-02T14:27:04.738Z,102936.41
2023-05-02T14:29:31.093Z,102937.63
2023-05-02T14:31:57.488Z,102931.50
2023-05-02T14:34:26.783Z,102934.56
2023-05-02T14:36:53.253Z,102934.63
2023-05-02T14:39:19.612Z,102942.50
2023-05-02T14:41:46.033Z,102951.16
2023-05-02T14:44:12.429Z,102946.06
2023-05-02T14:46:39.603Z,102954.38
2023-05-02T14:49:06.043Z,102960.78
2023-05-02T14:51:32.405Z,102945.56
2023-05-02T14:53:58.734Z,102949.28
2023-05-02T14:56:25.504Z,102948.81
2023-05-02T14:58:51.919Z,102946.44
2023-05-02T15:01:19.462Z,102947.16
2023-05-02T15:04:03.511Z,102944.06
2023-05-02T15:06:35.628Z,102940.47
2023-05-02T15:09:02.595Z,102939.63
2023-05-02T15:11:28.976Z,102941.53
2023-05-02T15:13:57.491Z,102933.56
2023-05-02T15:16:26.969Z,102939.47
2023-05-02T15:18:53.694Z,102940.19
2023-05-02T15:21:20.171Z,102934.31
2023-05-02T15:23:47.246Z,102939.75
2023-05-02T15:26:13.579Z,102937.59
2023-05-02T15:28:40.577Z,102933.81
2023-05-02T15:31:06.960Z,102933.41
2023-05-02T15:33:33.737Z,102937.72
2023-05-02T15:36:00.593Z,102934.34
2023-05-02T15:38:27.099Z,102937.84
2023-05-02T15:40:57.755Z,102938.50
2023-05-02T15:43:24.782Z,102939.09
2023-05-02T15:45:55.673Z,102939.81
2023-05-02T15:48:23.114Z,102938.47
2023-05-02T15:50:49.755Z,102931.06
2023-05-02T15:53:16.878Z,102941.88
2023-05-02T15:55:45.747Z,102947.47
2023-05-02T15:58:12.871Z,102941.16
2023-05-02T16:00:39.253Z,102948.88
2023-05-02T16:03:06.242Z,102940.72
2023-05-02T16:05:33.248Z,102943.56
2023-05-02T16:07:59.781Z,102946.53
2023-05-02T16:10:26.968Z,102948.41
2023-05-02T16:12:53.417Z,102954.16
2023-05-02T16:15:21.154Z,102958.13
2023-05-02T16:17:49.053Z,102952.09
2023-05-02T16:20:16.784Z,102948.16
2023-05-02T16:22:47.577Z,102948.72
2023-05-02T16:25:16.034Z,102951.50
2023-05-02T16:27:42.764Z,102953.63
2023-05-02T16:30:10.346Z,102953.63
2023-05-02T16:32:40.401Z,102956.34
2023-05-02T16:35:10.592Z,102945.88
2023-05-02T16:37:37.014Z,102947.50
2023-05-02T16:40:05.369Z,102947.19
2023-05-02T16:42:32.494Z,102950.19
2023-05-02T16:44:58.911Z,102943.00
2023-05-02T16:47:25.650Z,102949.97
2023-05-02T16:49:59.078Z,102947.31
2023-05-02T16:52:26.495Z,102951.66
2023-05-02T16:54:53.480Z,102951.72
2023-05-02T16:57:21.179Z,102957.16
2023-05-02T16:59:49.514Z,102957.72
2023-05-02T17:02:16.789Z,102964.31
2023-05-02T17:04:43.648Z,102955.72
2023-05-02T17:07:12.220Z,102963.91
2023-05-02T17:09:39.890Z,102966.38
2023-05-02T17:12:07.407Z,102971.44
2023-05-02T17:14:33.946Z,102968.97
2023-05-02T17:17:01.412Z,102974.25
2023-05-02T17:19:27.978Z,102974.94
2023-05-02T17:21:54.917Z,102970.16
2023-05-02T17:24:21.411Z,102981.94
2023-05-02T17:26:48.064Z,102986.22
2023-05-02T17:29:14.484Z,102972.41
2023-05-02T17:31:41.107Z,102971.22
2023-05-02T17:34:10.121Z,102968.44
2023-05-02T17:36:36.544Z,102965.09
2023-05-02T17:39:03.866Z,102962.78
2023-05-02T17:41:30.810Z,102961.28
2023-05-02T17:43:57.219Z,102973.16
2023-05-02T17:46:23.648Z,102977.00
2023-05-02T17:48:50.264Z,102976.63
2023-05-02T17:51:16.582Z,102977.47
2023-05-02T17:53:43.480Z,102985.19
2023-05-02T17:56:10.670Z,102986.31
2023-05-02T17:58:37.543Z,102986.91
2023-05-02T18:01:11.206Z,102982.03
2023-05-02T18:03:38.169Z,102987.47
2023-05-02T18:06:04.758Z,102987.84
2023-05-02T18:08:31.346Z,102988.44
2023-05-02T18:10:58.738Z,102994.19
2023-05-02T18:13:26.059Z,103003.41
2023-05-02T18:15:59.806Z,102994.97
2023-05-02T18:18:26.304Z,103002.25
2023-05-02T18:20:52.752Z,103007.91
2023-05-02T18:23:19.168Z,103011.03
2023-05-02T18:25:45.505Z,102998.25
2023-05-02T18:28:13.219Z,103001.22
2023-05-02T18:30:40.105Z,103007.72
2023-05-02T18:33:08.011Z,103008.41
2023-05-02T18:35:35.468Z,103007.91
2023-05-02T18:38:01.988Z,103000.03
2023-05-02T18:40:28.429Z,103007.22
2023-05-02T18:42:54.895Z,103009.16
2023-05-02T18:45:21.278Z,103009.59
2023-05-02T18:47:47.750Z,103014.72
2023-05-02T18:50:14.163Z,103011.72
2023-05-02T18:52:40.691Z,103017.22
2023-05-02T18:55:07.391Z,103012.06
2023-05-02T18:57:33.950Z,103014.03
2023-05-02T19:00:00.891Z,103013.25
2023-05-02T19:02:27.485Z,103022.22
2023-05-02T19:04:53.959Z,103017.63
2023-05-02T19:07:20.314Z,103029.34
2023-05-02T19:09:46.617Z,103037.75
2023-05-02T19:12:13.007Z,103041.47
2023-05-02T19:14:40.179Z,103036.91
2023-05-02T19:17:06.812Z,103035.53
2023-05-02T19:19:33.211Z,103034.22
2023-05-02T19:21:59.544Z,103039.78
2023-05-02T19:24:26.308Z,103046.31
2023-05-02T19:26:53.207Z,103043.16
2023-05-02T19:29:19.586Z,103050.09
2023-05-02T19:31:46.393Z,103046.69
2023-05-02T19:34:12.899Z,103055.63
2023-05-02T19:36:39.298Z,103050.50
2023-05-02T19:39:05.719Z,103051.59
2023-05-02T19:41:32.131Z,103045.75
2023-05-02T19:43:59.876Z,103046.00
2023-05-02T19:46:26.518Z,103050.56
2023-05-02T19:48:52.912Z,103051.34
2023-05-02T19:51:25.591Z,103064.47
2023-05-02T19:53:54.673Z,103047.19
2023-05-02T19:56:21.511Z,103054.41
2023-05-02T19:58:47.908Z,103058.81
2023-05-02T20:01:14.665Z,103051.19
2023-05-02T20:03:41.073Z,103056.59
2023-05-02T20:06:07.761Z,103051.41
2023-05-02T20:08:34.405Z,103064.78
2023-05-02T20:11:00.964Z,103066.72
2023-05-02T20:13:27.487Z,103073.91
2023-05-02T20:15:53.988Z,103079.16
2023-05-02T20:18:20.836Z,103078.53
2023-05-02T20:20:51.144Z,103087.41
2023-05-02T20:23:18.022Z,103096.22
2023-05-02T20:25:45.376Z,103084.25
2023-05-02T20:28:13.936Z,103072.22
2023-05-02T20:30:40.336Z,103091.44
2023-05-02T20:33:14.800Z,103085.44
2023-05-02T20:35:42.545Z,103089.09
2023-05-02T20:38:09.697Z,103098.84
2023-05-02T20:40:39.201Z,103099.00
2023-05-02T20:43:06.212Z,103099.06
2023-05-02T20:45:32.649Z,103100.91
2023-05-02T20:47:59.206Z,103095.81
2023-05-02T20:50:25.869Z,103108.06
2023-05-02T20:52:52.310Z,103112.56
2023-05-02T20:55:18.754Z,103110.06
2023-05-02T20:57:45.633Z,103116.22
2023-05-02T21:00:13.668Z,103105.81
2023-05-02T21:02:40.102Z,103105.03
2023-05-02T21:05:07.083Z,103110.31
2023-05-02T21:07:33.427Z,103100.69
2023-05-02T21:10:00.150Z,103106.03
2023-05-02T21:12:26.842Z,103105.16
2023-05-02T21:14:53.454Z,103102.72
2023-05-02T21:17:19.780Z,103109.78
2023-05-02T21:19:46.189Z,103102.81
2023-05-02T21:22:12.640Z,103107.28
2023-05-02T21:24:38.966Z,103106.50
2023-05-02T21:27:05.532Z,103099.69
2023-05-02T21:29:31.938Z,103112.94
2023-05-02T21:31:58.354Z,103098.16
2023-05-02T21:34:24.746Z,103100.00
2023-05-02T21:36:51.079Z,103100.19
2023-05-02T21:39:18.185Z,103107.47
2023-05-02T21:41:44.521Z,103102.53
2023-05-02T21:44:11.526Z,103098.34
2023-05-02T21:46:37.957Z,103095.97
2023-05-02T21:49:04.331Z,103100.91
2023-05-02T21:51:30.706Z,103111.47
2023-05-02T21:53:57.075Z,103106.66
2023-05-02T21:56:23.440Z,103106.00
2023-05-02T21:58:51.185Z,103103.50
2023-05-02T22:01:17.914Z,103106.22
2023-05-02T22:03:44.319Z,103108.81
2023-05-02T22:06:10.886Z,103101.13
2023-05-02T22:08:37.631Z,103104.00
2023-05-02T22:11:09.025Z,103098.28
2023-05-02T22:13:36.032Z,103089.56
2023-05-02T22:16:02.455Z,103099.22
2023-05-02T22:18:28.996Z,103091.97
2023-05-02T22:20:57.237Z,103083.06
2023-05-02T22:23:24.039Z,103078.50
2023-05-02T22:25:50.525Z,103074.09
2023-05-02T22:28:16.972Z,103076.91
2023-05-02T22:30:43.426Z,103079.78
2023-05-02T22:33:10.071Z,103082.47
2023-05-02T22:35:37.546Z,103081.59
2023-05-02T22:38:04.858Z,103092.06
2023-05-02T22:40:31.662Z,103082.53
2023-05-02T22:42:58.513Z,103080.03
2023-05-02T22:45:26.782Z,103078.44
2023-05-02T22:47:53.262Z,103075.13
2023-05-02T22:50:19.829Z,103078.63
2023-05-02T22:52:48.879Z,103085.63
2023-05-02T22:55:15.482Z,103087.50
2023-05-02T22:57:42.663Z,103089.22
2023-05-02T23:00:10.395Z,103088.34
2023-05-02T23:02:36.962Z,103089.38
2023-05-02T23:05:04.194Z,103085.88
2023-05-02T23:07:30.798Z,103105.63
2023-05-02T23:09:57.169Z,103096.34
2023-05-02T23:12:23.575Z,103089.50
2023-05-02T23:14:50.022Z,103087.84
2023-05-02T23:17:16.405Z,103098.31
2023-05-02T23:19:42.811Z,103101.84
2023-05-02T23:22:09.165Z,103102.81
2023-05-02T23:24:35.562Z,103099.41
2023-05-02T23:27:01.972Z,103105.63
2023-05-02T23:29:28.513Z,103098.94
2023-05-02T23:31:55.519Z,103107.13
2023-05-02T23:34:22.256Z,103095.06
2023-05-02T23:36:49.000Z,103113.97
2023-05-02T23:39:15.385Z,103119.88
2023-05-02T23:41:41.791Z,103117.25
2023-05-02T23:44:08.103Z,103120.78
2023-05-02T23:46:34.610Z,103132.19
2023-05-02T23:49:00.979Z,103128.84
2023-05-02T23:51:28.409Z,103129.09
2023-05-02T23:53:54.896Z,103140.38
2023-05-02T23:56:21.380Z,103139.72
2023-05-02T23:58:47.762Z,103144.38
